createdAt,value
2019-01-19T00:02:16.133Z,14.30
2019-01-19T00:05:13.143Z,13.23
2019-01-19T00:07:57.724Z,6.10
2019-01-19T00:11:03.644Z,7.90
2019-01-19T00:13:51.630Z,9.77
2019-01-19T00:17:00.900Z,12.73
2019-01-19T00:19:48.739Z,10.00
2019-01-19T00:22:36.986Z,9.50
2019-01-19T00:25:40.298Z,7.43
2019-01-19T00:28:28.282Z,8.13
2019-01-19T00:31:41.053Z,10.30
2019-01-19T00:34:25.747Z,3.73
2019-01-19T00:37:05.128Z,4.50
2019-01-19T00:39:44.411Z,10.13
2019-01-19T00:42:32.380Z,8.37
2019-01-19T00:45:52.592Z,5.80
2019-01-19T00:48:40.509Z,6.07
2019-01-19T00:51:22.342Z,7.83
2019-01-19T00:54:19.274Z,5.23
2019-01-19T00:57:04.323Z,6.70
2019-01-19T00:59:38.934Z,5.13
2019-01-19T01:02:37.825Z,4.30
2019-01-19T01:05:25.175Z,8.10
2019-01-19T01:08:21.310Z,7.07
2019-01-19T01:11:06.088Z,6.77
2019-01-19T01:13:57.105Z,5.67
2019-01-19T01:16:42.147Z,6.07
2019-01-19T01:19:39.316Z,6.23
2019-01-19T01:22:30.360Z,14.37
2019-01-19T01:25:32.513Z,5.37
2019-01-19T01:28:20.567Z,5.70
2019-01-19T01:31:02.632Z,3.93
2019-01-19T01:34:08.874Z,3.93
2019-01-19T01:37:02.728Z,3.80
2019-01-19T01:39:53.818Z,6.63
2019-01-19T01:43:04.495Z,4.23
2019-01-19T01:45:58.870Z,6.30
2019-01-19T01:48:46.865Z,5.00
2019-01-19T01:51:34.712Z,6.07
2019-01-19T01:54:46.792Z,4.70
2019-01-19T01:57:25.192Z,5.40
2019-01-19T02:00:28.044Z,3.53
2019-01-19T02:03:23.649Z,5.77
2019-01-19T02:06:12.183Z,4.20
2019-01-19T02:09:14.407Z,11.10
2019-01-19T02:12:10.486Z,7.97
2019-01-19T02:15:18.101Z,6.27
2019-01-19T02:18:23.200Z,5.20
2019-01-19T02:21:08.115Z,6.53
2019-01-19T02:23:53.299Z,5.20
2019-01-19T02:26:44.215Z,4.70
2019-01-19T02:29:32.353Z,3.50
2019-01-19T02:32:23.429Z,3.90
2019-01-19T02:35:08.161Z,3.30
2019-01-19T02:37:55.721Z,6.60
2019-01-19T02:40:55.966Z,4.60
2019-01-19T02:43:35.178Z,2.00
2019-01-19T02:46:37.946Z,3.83
2019-01-19T02:49:26.276Z,3.33
2019-01-19T02:52:54.166Z,4.90
2019-01-19T02:55:46.239Z,5.10
2019-01-19T02:58:37.064Z,5.87
2019-01-19T03:01:33.021Z,4.80
2019-01-19T03:04:26.951Z,2.93
2019-01-19T03:07:22.863Z,3.03
2019-01-19T03:10:27.547Z,2.93
2019-01-19T03:13:18.555Z,7.40
2019-01-19T03:16:06.473Z,4.83
2019-01-19T03:19:01.141Z,3.43
2019-01-19T03:21:43.270Z,4.67
2019-01-19T03:24:37.790Z,4.27
2019-01-19T03:27:23.026Z,7.53
2019-01-19T03:30:30.910Z,4.43
2019-01-19T03:33:34.246Z,6.73
2019-01-19T03:36:19.140Z,5.60
2019-01-19T03:39:39.577Z,5.07
2019-01-19T03:42:31.247Z,9.30
2019-01-19T03:45:46.460Z,6.33
2019-01-19T03:48:31.661Z,3.90
2019-01-19T03:51:16.674Z,3.53
2019-01-19T03:54:01.633Z,2.97
2019-01-19T03:56:49.997Z,5.73
2019-01-19T03:59:41.463Z,3.47
2019-01-19T04:02:29.300Z,5.00
2019-01-19T04:05:23.344Z,3.40
2019-01-19T04:08:36.817Z,3.13
2019-01-19T04:11:33.756Z,4.40
2019-01-19T04:14:53.811Z,2.67
2019-01-19T04:17:45.169Z,5.67
2019-01-19T04:20:39.135Z,2.97
2019-01-19T04:23:13.624Z,3.57
2019-01-19T04:25:52.957Z,3.30
2019-01-19T04:28:27.592Z,3.60
2019-01-19T04:31:02.035Z,2.60
2019-01-19T04:33:36.466Z,5.60
2019-01-19T04:36:11.881Z,4.30
2019-01-19T04:38:46.944Z,6.47
2019-01-19T04:41:21.399Z,3.37
2019-01-19T04:43:55.828Z,5.23
2019-01-19T04:46:30.323Z,3.00
2019-01-19T04:49:04.853Z,3.60
2019-01-19T04:51:39.228Z,7.70
2019-01-19T04:54:13.688Z,9.93
2019-01-19T04:56:48.196Z,9.43
2019-01-19T04:59:22.674Z,9.57
2019-01-19T05:01:57.035Z,8.27
2019-01-19T05:04:31.536Z,11.47
2019-01-19T05:07:05.997Z,8.17
2019-01-19T05:09:40.484Z,13.70
2019-01-19T05:12:14.999Z,10.67
2019-01-19T05:14:49.345Z,9.73
2019-01-19T05:17:23.880Z,6.53
2019-01-19T05:19:58.240Z,5.07
2019-01-19T05:22:32.606Z,4.67
2019-01-19T05:25:10.355Z,8.57
2019-01-19T05:27:44.743Z,5.43
2019-01-19T05:30:20.623Z,14.97
2019-01-19T05:32:55.415Z,5.83
2019-01-19T05:35:29.880Z,5.60
2019-01-19T05:38:04.344Z,4.13
2019-01-19T05:40:38.770Z,5.67
2019-01-19T05:43:13.577Z,15.97
2019-01-19T05:45:47.914Z,5.20
2019-01-19T05:48:22.366Z,4.13
2019-01-19T05:50:56.721Z,3.80
2019-01-19T05:53:31.174Z,7.17
2019-01-19T05:56:05.588Z,5.87
2019-01-19T05:58:39.977Z,5.13
2019-01-19T06:01:14.508Z,6.97
2019-01-19T06:03:48.942Z,4.63
2019-01-19T06:06:23.888Z,3.97
2019-01-19T06:08:58.260Z,6.30
2019-01-19T06:11:32.687Z,7.17
2019-01-19T06:14:07.124Z,6.37
2019-01-19T06:16:41.612Z,11.07
2019-01-19T06:19:16.491Z,10.40
2019-01-19T06:21:52.491Z,9.07
2019-01-19T06:24:26.940Z,9.57
2019-01-19T06:27:01.438Z,13.63
2019-01-19T06:29:35.885Z,12.73
2019-01-19T06:32:10.380Z,5.90
2019-01-19T06:34:44.885Z,8.77
2019-01-19T06:37:19.324Z,17.90
2019-01-19T06:39:53.808Z,16.57
2019-01-19T06:42:28.297Z,12.20
2019-01-19T06:45:02.765Z,9.67
2019-01-19T06:47:37.191Z,8.03
2019-01-19T06:50:16.995Z,7.93
2019-01-19T06:52:51.410Z,9.50
2019-01-19T06:55:29.280Z,9.63
2019-01-19T06:58:03.636Z,20.23
2019-01-19T07:00:38.132Z,39.73
2019-01-19T07:03:12.677Z,31.00
2019-01-19T07:05:47.163Z,22.47
2019-01-19T07:08:21.589Z,11.27
2019-01-19T07:10:56.057Z,13.03
2019-01-19T07:13:30.613Z,9.60
2019-01-19T07:16:05.103Z,7.30
2019-01-19T07:18:39.547Z,7.83
2019-01-19T07:21:14.024Z,6.53
2019-01-19T07:23:48.543Z,8.40
2019-01-19T07:26:23.039Z,7.97
2019-01-19T07:28:57.395Z,8.13
2019-01-19T07:31:31.792Z,5.53
2019-01-19T07:34:06.143Z,4.93
2019-01-19T07:36:40.533Z,8.37
2019-01-19T07:39:15.038Z,5.33
2019-01-19T07:41:49.474Z,8.00
2019-01-19T07:44:23.882Z,5.30
2019-01-19T07:46:59.318Z,4.27
2019-01-19T07:49:33.821Z,9.87
2019-01-19T07:52:08.215Z,5.40
2019-01-19T07:54:42.670Z,6.17
2019-01-19T07:57:17.298Z,5.77
2019-01-19T07:59:51.656Z,8.30
2019-01-19T08:02:26.111Z,5.77
2019-01-19T08:05:00.596Z,8.03
2019-01-19T08:07:35.128Z,8.67
2019-01-19T08:10:16.761Z,10.60
2019-01-19T08:12:51.226Z,11.47
2019-01-19T08:15:29.599Z,10.60
2019-01-19T08:18:04.163Z,11.40
2019-01-19T08:20:38.648Z,16.63
2019-01-19T08:23:13.102Z,19.00
2019-01-19T08:25:47.533Z,22.17
2019-01-19T08:28:21.953Z,26.07
2019-01-19T08:30:56.303Z,31.40
2019-01-19T08:33:30.767Z,34.07
2019-01-19T08:36:05.793Z,33.47
2019-01-19T08:38:40.224Z,41.00
2019-01-19T08:41:14.721Z,33.07
2019-01-19T08:43:50.736Z,36.80
2019-01-19T08:46:25.113Z,38.40
2019-01-19T08:48:59.557Z,42.50
2019-01-19T08:51:34.154Z,37.13
2019-01-19T08:54:08.636Z,46.67
2019-01-19T08:56:43.175Z,49.87
2019-01-19T08:59:17.672Z,64.90
2019-01-19T09:01:52.013Z,65.33
2019-01-19T09:04:26.472Z,59.40
2019-01-19T09:07:00.984Z,61.87
2019-01-19T09:09:35.429Z,48.73
2019-01-19T09:12:09.838Z,44.40
2019-01-19T09:14:44.297Z,49.27
2019-01-19T09:17:18.800Z,32.27
2019-01-19T09:19:53.173Z,32.47
2019-01-19T09:22:27.547Z,22.23
2019-01-19T09:25:02.005Z,28.73
2019-01-19T09:27:36.458Z,33.80
2019-01-19T09:30:23.661Z,36.37
2019-01-19T09:32:58.635Z,26.93
2019-01-19T09:35:33.087Z,19.67
2019-01-19T09:38:07.519Z,21.70
2019-01-19T09:40:42.036Z,21.03
2019-01-19T09:43:16.522Z,25.70
2019-01-19T09:45:50.960Z,19.43
2019-01-19T09:48:25.335Z,28.80
2019-01-19T09:51:00.292Z,23.53
2019-01-19T09:53:34.792Z,22.13
2019-01-19T09:56:09.234Z,25.17
2019-01-19T09:58:43.801Z,26.33
2019-01-19T10:01:18.245Z,27.07
2019-01-19T10:03:52.594Z,19.50
2019-01-19T10:06:27.028Z,26.03
2019-01-19T10:09:01.463Z,24.37
2019-01-19T10:11:36.108Z,20.30
2019-01-19T10:14:10.486Z,29.40
2019-01-19T10:16:44.935Z,24.70
2019-01-19T10:19:19.305Z,25.53
2019-01-19T10:21:53.755Z,25.70
2019-01-19T10:24:28.178Z,19.93
2019-01-19T10:27:02.694Z,21.97
2019-01-19T10:29:38.318Z,19.53
2019-01-19T10:32:12.751Z,24.70
2019-01-19T10:34:47.198Z,20.20
2019-01-19T10:37:21.659Z,26.93
2019-01-19T10:39:56.086Z,24.97
2019-01-19T10:42:30.459Z,22.87
2019-01-19T10:45:07.289Z,33.53
2019-01-19T10:47:41.804Z,33.23
2019-01-19T10:50:18.304Z,26.47
2019-01-19T10:52:52.803Z,25.33
2019-01-19T10:55:27.160Z,20.37
2019-01-19T10:58:01.676Z,17.53
2019-01-19T11:00:36.550Z,17.43
2019-01-19T11:03:11.028Z,21.57
2019-01-19T11:05:45.440Z,15.00
2019-01-19T11:08:19.881Z,16.33
2019-01-19T11:10:54.348Z,17.47
2019-01-19T11:13:28.867Z,19.43
2019-01-19T11:16:03.375Z,14.77
2019-01-19T11:18:37.825Z,16.40
2019-01-19T11:21:12.242Z,20.53
2019-01-19T11:23:46.687Z,18.50
2019-01-19T11:26:21.267Z,16.70
2019-01-19T11:28:55.714Z,16.43
2019-01-19T11:31:30.210Z,19.73
2019-01-19T11:34:04.733Z,15.77
2019-01-19T11:36:39.785Z,17.17
2019-01-19T11:39:14.314Z,19.53
2019-01-19T11:41:48.826Z,30.03
2019-01-19T11:44:23.268Z,20.33
2019-01-19T11:46:57.752Z,14.93
2019-01-19T11:49:32.136Z,18.17
2019-01-19T11:52:06.562Z,19.00
2019-01-19T11:54:41.203Z,13.93
2019-01-19T11:57:15.698Z,13.10
2019-01-19T11:59:50.089Z,16.83
2019-01-19T12:02:24.509Z,14.83
2019-01-19T12:04:58.862Z,22.30
2019-01-19T12:07:33.304Z,15.20
2019-01-19T12:10:15.463Z,12.63
2019-01-19T12:12:49.879Z,11.73
2019-01-19T12:15:24.324Z,13.00
2019-01-19T12:17:58.737Z,17.87
2019-01-19T12:20:40.204Z,14.57
2019-01-19T12:23:14.629Z,13.57
2019-01-19T12:25:49.118Z,12.97
2019-01-19T12:28:23.623Z,14.40
2019-01-19T12:30:58.071Z,15.40
2019-01-19T12:33:32.558Z,11.50
2019-01-19T12:36:06.936Z,11.77
2019-01-19T12:38:41.369Z,18.80
2019-01-19T12:41:15.739Z,11.90
2019-01-19T12:43:50.157Z,10.13
2019-01-19T12:46:24.564Z,14.40
2019-01-19T12:48:59.005Z,14.30
2019-01-19T12:51:33.974Z,16.97
2019-01-19T12:54:08.514Z,12.73
2019-01-19T12:56:42.991Z,16.10
2019-01-19T12:59:17.570Z,12.27
2019-01-19T13:01:52.014Z,12.70
2019-01-19T13:04:26.572Z,11.17
2019-01-19T13:07:01.022Z,14.57
2019-01-19T13:09:35.501Z,20.03
2019-01-19T13:12:23.803Z,12.40
2019-01-19T13:15:03.227Z,22.77
2019-01-19T13:17:54.306Z,18.40
2019-01-19T13:20:54.861Z,15.83
2019-01-19T13:23:59.862Z,13.87
2019-01-19T13:27:06.026Z,14.83
2019-01-19T13:30:05.139Z,24.40
2019-01-19T13:32:50.000Z,20.17
2019-01-19T13:35:58.071Z,23.73
2019-01-19T13:38:41.885Z,20.23
2019-01-19T13:42:01.018Z,18.77
2019-01-19T13:45:15.353Z,14.37
2019-01-19T13:48:26.194Z,19.83
2019-01-19T13:51:11.330Z,15.93
2019-01-19T13:54:09.902Z,16.13
2019-01-19T13:57:19.075Z,18.43
2019-01-19T14:00:07.127Z,17.53
2019-01-19T14:03:16.990Z,17.17
2019-01-19T14:06:01.939Z,15.73
2019-01-19T14:09:05.028Z,16.03
2019-01-19T14:12:02.226Z,17.50
2019-01-19T14:14:56.539Z,16.70
2019-01-19T14:18:17.943Z,17.53
2019-01-19T14:21:03.133Z,17.10
2019-01-19T14:23:42.941Z,14.60
2019-01-19T14:26:33.890Z,21.13
2019-01-19T14:29:34.563Z,13.47
2019-01-19T14:32:34.505Z,20.23
2019-01-19T14:35:43.794Z,28.67
2019-01-19T14:38:56.372Z,16.67
2019-01-19T14:42:21.080Z,23.17
2019-01-19T14:45:24.364Z,22.27
2019-01-19T14:48:33.847Z,19.23
2019-01-19T14:51:13.186Z,18.57
2019-01-19T14:54:04.788Z,23.07
2019-01-19T14:57:06.637Z,18.73
2019-01-19T14:59:54.899Z,22.30
2019-01-19T15:02:53.499Z,20.73
2019-01-19T15:05:35.805Z,18.47
2019-01-19T15:08:15.122Z,19.73
2019-01-19T15:11:06.503Z,20.63
2019-01-19T15:14:07.379Z,29.40
2019-01-19T15:17:09.477Z,21.67
2019-01-19T15:19:51.709Z,22.43
2019-01-19T15:22:59.963Z,20.43
2019-01-19T15:25:44.997Z,26.77
2019-01-19T15:28:42.436Z,24.07
2019-01-19T15:31:27.345Z,22.83
2019-01-19T15:34:46.187Z,24.57
2019-01-19T15:37:31.288Z,24.67
2019-01-19T15:40:28.690Z,25.40
2019-01-19T15:43:31.879Z,24.67
2019-01-19T15:46:42.760Z,21.33
2019-01-19T15:49:42.241Z,23.17
2019-01-19T15:52:27.154Z,23.63
2019-01-19T15:55:09.235Z,20.53
2019-01-19T15:57:57.420Z,21.80
2019-01-19T16:01:00.715Z,23.17
2019-01-19T16:03:51.720Z,25.07
2019-01-19T16:06:47.908Z,26.63
2019-01-19T16:09:52.738Z,24.13
2019-01-19T16:12:49.746Z,24.50
2019-01-19T16:16:14.273Z,29.33
2019-01-19T16:19:23.415Z,31.77
2019-01-19T16:22:14.087Z,29.67
2019-01-19T16:25:21.990Z,24.90
2019-01-19T16:28:39.701Z,21.53
2019-01-19T16:31:30.716Z,25.37
2019-01-19T16:34:26.313Z,24.70
2019-01-19T16:37:11.467Z,26.30
2019-01-19T16:39:56.690Z,26.77
2019-01-19T16:42:41.629Z,25.43
2019-01-19T16:45:32.806Z,26.23
2019-01-19T16:48:20.906Z,28.60
2019-01-19T16:51:02.810Z,20.40
2019-01-19T16:53:50.826Z,22.60
2019-01-19T16:56:49.852Z,25.90
2019-01-19T16:59:29.180Z,24.47
2019-01-19T17:02:08.469Z,23.60
2019-01-19T17:05:05.771Z,28.73
2019-01-19T17:08:00.233Z,32.37
2019-01-19T17:11:05.073Z,23.97
2019-01-19T17:13:56.060Z,26.50
2019-01-19T17:17:07.125Z,24.40
2019-01-19T17:20:13.006Z,26.70
2019-01-19T17:23:01.320Z,25.03
2019-01-19T17:25:49.482Z,27.97
2019-01-19T17:28:37.294Z,27.53
2019-01-19T17:31:28.665Z,26.17
2019-01-19T17:34:10.880Z,35.93
2019-01-19T17:37:02.321Z,24.17
2019-01-19T17:39:59.336Z,26.57
2019-01-19T17:43:02.560Z,26.30
2019-01-19T17:45:50.261Z,24.20
2019-01-19T17:48:38.417Z,25.00
2019-01-19T17:51:26.089Z,26.83
2019-01-19T17:54:26.393Z,27.63
2019-01-19T17:57:20.365Z,30.17
2019-01-19T18:00:35.915Z,26.77
2019-01-19T18:03:17.707Z,24.87
2019-01-19T18:06:03.047Z,23.47
2019-01-19T18:09:06.190Z,27.80
2019-01-19T18:11:51.320Z,26.60
2019-01-19T18:14:48.807Z,24.83
2019-01-19T18:17:39.349Z,28.60
2019-01-19T18:20:44.382Z,26.00
2019-01-19T18:23:47.789Z,26.73
2019-01-19T18:26:53.830Z,23.37
2019-01-19T18:29:55.693Z,26.93
2019-01-19T18:32:55.931Z,22.80
2019-01-19T18:35:47.254Z,30.40
2019-01-19T18:39:04.761Z,24.83
2019-01-19T18:42:18.874Z,23.53
2019-01-19T18:45:28.364Z,29.00
2019-01-19T18:48:57.470Z,29.90
2019-01-19T18:52:09.857Z,37.43
2019-01-19T18:54:55.253Z,92.83
2019-01-19T18:58:08.867Z,38.07
2019-01-19T19:00:59.145Z,24.93
2019-01-19T19:03:57.556Z,25.30
2019-01-19T19:07:09.968Z,28.07
2019-01-19T19:10:02.244Z,24.93
2019-01-19T19:12:47.385Z,28.07
2019-01-19T19:15:37.998Z,25.97
2019-01-19T19:18:44.576Z,25.80
2019-01-19T19:21:55.549Z,31.27
2019-01-19T19:25:09.949Z,33.87
2019-01-19T19:28:04.089Z,29.70
2019-01-19T19:30:58.288Z,43.67
2019-01-19T19:34:06.015Z,45.63
2019-01-19T19:37:03.519Z,68.40
2019-01-19T19:39:45.749Z,37.30
2019-01-19T19:42:27.546Z,43.23
2019-01-19T19:45:12.652Z,58.40
2019-01-19T19:48:03.275Z,39.90
2019-01-19T19:51:09.858Z,36.27
2019-01-19T19:53:44.641Z,30.70
2019-01-19T19:56:17.679Z,35.83
2019-01-19T19:58:52.209Z,32.03
2019-01-19T20:01:27.005Z,31.07
2019-01-19T20:04:01.581Z,35.33
2019-01-19T20:06:36.158Z,31.37
2019-01-19T20:09:10.955Z,43.03
2019-01-19T20:11:45.378Z,35.97
2019-01-19T20:14:19.810Z,35.00
2019-01-19T20:16:54.168Z,40.87
2019-01-19T20:19:28.561Z,38.73
2019-01-19T20:22:03.144Z,39.73
2019-01-19T20:24:37.655Z,35.63
2019-01-19T20:27:12.144Z,40.97
2019-01-19T20:29:46.658Z,41.73
2019-01-19T20:32:21.070Z,38.30
2019-01-19T20:34:55.534Z,37.70
2019-01-19T20:37:30.029Z,40.27
2019-01-19T20:40:08.379Z,45.30
2019-01-19T20:42:42.909Z,63.67
2019-01-19T20:45:17.488Z,59.77
2019-01-19T20:47:51.970Z,53.77
2019-01-19T20:50:26.414Z,57.03
2019-01-19T20:53:00.770Z,47.77
2019-01-19T20:55:35.339Z,49.03
2019-01-19T20:58:09.828Z,54.00
2019-01-19T21:00:44.340Z,58.77
2019-01-19T21:03:18.780Z,59.13
2019-01-19T21:05:53.212Z,49.50
2019-01-19T21:08:27.657Z,50.83
2019-01-19T21:11:02.100Z,48.37
2019-01-19T21:13:36.649Z,49.57
2019-01-19T21:16:11.101Z,51.37
2019-01-19T21:18:45.579Z,46.40
2019-01-19T21:21:20.027Z,53.47
2019-01-19T21:23:54.451Z,51.23
2019-01-19T21:26:28.815Z,55.53
2019-01-19T21:29:03.238Z,49.30
2019-01-19T21:31:37.692Z,50.70
2019-01-19T21:34:12.224Z,53.97
2019-01-19T21:36:46.682Z,51.30
2019-01-19T21:39:21.064Z,50.77
2019-01-19T21:41:55.508Z,53.20
2019-01-19T21:44:29.934Z,48.87
2019-01-19T21:47:04.449Z,56.33
2019-01-19T21:49:38.939Z,56.60
2019-01-19T21:52:13.574Z,58.10
2019-01-19T21:54:48.090Z,49.53
2019-01-19T21:57:22.554Z,56.63
2019-01-19T21:59:56.954Z,69.07
2019-01-19T22:02:31.407Z,61.27
2019-01-19T22:05:07.143Z,69.37
2019-01-19T22:07:41.665Z,66.50
2019-01-19T22:10:19.789Z,61.63
2019-01-19T22:12:54.298Z,43.00
2019-01-19T22:15:28.659Z,41.87
2019-01-19T22:18:03.277Z,39.57
2019-01-19T22:20:37.734Z,53.77
2019-01-19T22:23:12.403Z,47.33
2019-01-19T22:25:46.819Z,46.43
2019-01-19T22:28:21.249Z,49.00
2019-01-19T22:30:55.682Z,47.47
2019-01-19T22:33:30.288Z,41.83
2019-01-19T22:36:04.717Z,49.93
2019-01-19T22:38:39.360Z,46.17
2019-01-19T22:41:13.853Z,40.30
2019-01-19T22:43:48.297Z,40.20
2019-01-19T22:46:22.738Z,43.00
2019-01-19T22:48:57.181Z,38.80
2019-01-19T22:51:31.725Z,41.93
2019-01-19T22:54:06.266Z,42.70
2019-01-19T22:56:40.700Z,45.63
2019-01-19T22:59:15.082Z,45.40
2019-01-19T23:01:49.587Z,41.33
2019-01-19T23:04:24.042Z,42.80
2019-01-19T23:06:58.404Z,48.13
2019-01-19T23:09:32.847Z,40.27
2019-01-19T23:12:07.297Z,42.00
2019-01-19T23:14:42.144Z,40.37
2019-01-19T23:17:16.678Z,43.73
2019-01-19T23:19:51.062Z,40.43
2019-01-19T23:22:26.451Z,38.40
2019-01-19T23:25:01.206Z,40.70
2019-01-19T23:27:35.751Z,44.23
2019-01-19T23:30:15.748Z,41.83
2019-01-19T23:32:50.144Z,40.60
2019-01-19T23:35:25.024Z,38.23
2019-01-19T23:37:59.463Z,174.50
2019-01-19T23:40:33.896Z,97.67
2019-01-19T23:43:08.412Z,95.17
2019-01-19T23:45:43.119Z,51.83
2019-01-19T23:48:17.523Z,50.30
2019-01-19T23:50:52.010Z,52.30
2019-01-19T23:53:26.441Z,66.43
2019-01-19T23:56:00.856Z,66.27
2019-01-19T23:58:35.262Z,60.33
